Freedom, NH (03836)

9:52 PM EST on February 10, 2016 (GMT -0500)
APRSWXNET | | Change Station
CLOSE
Current Station
Personal Weather Station
Location: Madison, NH
Elevation: 951 ft
Nearby Weather Stations

Elev 951 ft 43.89 °N, 71.12 °W | Updated 34 minutes ago

Overcast
Overcast
27 °F
Feels Like 21 °F
N
5
Wind Variable Wind from WNW
Gusts 0.0 mph

Today
High -- | Low -- °F
--% Chance of Precip.
Yesterday
High -- | Low -- °F
Precip. -- in
Pressure 29.55 in
Visibility 10.0 miles
Clouds Clear
Windchill 21 °F
Dew Point 24 °F
Humidity 88%
Rainfall in
Snow Depth Not available.
6:50 AM 5:06 PM
Waxing Crescent, 8% visible
METAR KIZG 110154Z AUTO 24005KT 10SM CLR M01/M04 A2952 RMK AO2 SLP004 T10061039
Pressure 29.55 in
Visibility 10.0 miles
Clouds Clear
Windchill 21 °F
Dew Point 24 °F
Humidity 88%
Rainfall in
Snow Depth Not available.
6:50 AM 5:06 PM
Waxing Crescent, 8% visible
METAR KIZG 110154Z AUTO 24005KT 10SM CLR M01/M04 A2952 RMK AO2 SLP004 T10061039

10-Day Weather Forecast

Almanac

Astronomy

Feb. 10, 2016 Rise Set
Actual Time
Civil Twilight
Nautical Twilight
Astronomical Twilight
Moon
Length of Visible Light
Length of Day
Tomorrow will be .
, % of the Moon is Illuminated

Today's Extremes

State Highs State Lows

Community

WunderPhotos

Upload Photos

1,891,986 photos uploaded!

WunderBlog® & News

Nearby

Air Quality

  Air Quality AQ Index Pollutant
Not available.

Snow Depth

Station Depth Elevation

Earthquake Activity

City Distance Mag. Time & Date
Minimum magnitude displayed is 2.5.

Coastal Water Temperatures

Place Temperature

Stations

Nearby Weather Stations

Station Location Temp. Windchill Dew Point Humidity Wind Precip. Elev Updated Type
                   

Watches & Warnings

There are currently no watches in effect.